createdAt,value
2019-05-17T00:02:37.391Z,8.12
2019-05-17T00:05:23.705Z,8.16
2019-05-17T00:08:10.927Z,8.18
2019-05-17T00:11:12.559Z,8.19
2019-05-17T00:13:59.582Z,8.19
2019-05-17T00:16:47.094Z,8.18
2019-05-17T00:19:46.364Z,8.15
2019-05-17T00:22:28.902Z,8.13
2019-05-17T00:25:30.913Z,8.10
2019-05-17T00:28:18.305Z,8.05
2019-05-17T00:31:06.688Z,8.01
2019-05-17T00:34:07.530Z,7.97
2019-05-17T00:36:57.403Z,7.90
2019-05-17T00:39:57.202Z,7.84
2019-05-17T00:42:46.433Z,7.74
2019-05-17T00:45:32.100Z,7.69
2019-05-17T00:48:19.146Z,7.63
2019-05-17T00:51:10.276Z,7.62
2019-05-17T00:53:53.352Z,7.65
2019-05-17T00:56:40.597Z,7.68
2019-05-17T00:59:27.612Z,7.70
2019-05-17T01:02:16.381Z,8.45
2019-05-17T01:05:09.983Z,8.02
2019-05-17T01:08:11.797Z,8.70
2019-05-17T01:10:58.806Z,8.16
2019-05-17T01:13:46.659Z,8.05
2019-05-17T01:16:33.030Z,8.00
2019-05-17T01:19:20.288Z,7.96
2019-05-17T01:22:07.741Z,7.86
2019-05-17T01:24:56.991Z,7.79
2019-05-17T01:27:56.513Z,8.48
2019-05-17T01:33:49.594Z,8.62
2019-05-17T01:36:37.067Z,8.07
2019-05-17T01:39:26.745Z,7.97
2019-05-17T01:42:12.536Z,7.92
2019-05-17T01:44:59.618Z,7.89
2019-05-17T01:48:00.974Z,7.91
2019-05-17T01:50:47.905Z,7.93
2019-05-17T01:53:36.437Z,7.95
2019-05-17T01:56:38.541Z,8.73
2019-05-17T01:59:26.774Z,8.24
2019-05-17T02:02:16.430Z,8.20
2019-05-17T02:05:06.309Z,8.19
2019-05-17T02:07:52.264Z,8.19
2019-05-17T02:10:39.258Z,8.18
2019-05-17T02:13:26.815Z,8.13
2019-05-17T02:16:27.670Z,8.09
2019-05-17T02:19:22.257Z,8.79
2019-05-17T02:22:10.172Z,8.20
2019-05-17T02:24:58.085Z,8.06
2019-05-17T02:27:45.637Z,7.97
2019-05-17T02:30:33.911Z,7.89
2019-05-17T02:33:23.359Z,7.81
2019-05-17T02:36:24.077Z,7.73
2019-05-17T02:39:13.176Z,7.66
2019-05-17T02:42:13.838Z,7.59
2019-05-17T02:45:03.063Z,7.50
2019-05-17T02:47:47.976Z,7.44
2019-05-17T02:50:35.385Z,7.38
2019-05-17T02:53:23.373Z,7.33
2019-05-17T02:56:24.321Z,7.27
2019-05-17T02:59:17.430Z,7.19
2019-05-17T03:02:04.239Z,7.13
2019-05-17T03:04:52.710Z,7.74
2019-05-17T03:07:52.622Z,7.28
2019-05-17T03:10:44.236Z,7.14
2019-05-17T03:13:32.834Z,7.04
2019-05-17T03:16:18.780Z,6.99
2019-05-17T03:19:06.461Z,6.92
2019-05-17T03:21:54.440Z,6.88
2019-05-17T03:24:43.914Z,6.85
2019-05-17T03:27:29.353Z,6.85
2019-05-17T03:30:24.137Z,6.86
2019-05-17T03:33:17.067Z,6.89
2019-05-17T03:36:06.920Z,6.94
2019-05-17T03:38:53.432Z,7.00
2019-05-17T03:41:45.966Z,7.07
2019-05-17T03:44:33.533Z,7.16
2019-05-17T03:47:34.891Z,7.25
2019-05-17T03:50:22.700Z,7.32
2019-05-17T03:56:14.817Z,7.44
2019-05-17T03:59:16.840Z,8.27
2019-05-17T04:02:04.240Z,7.89
2019-05-17T04:04:59.080Z,8.68
2019-05-17T04:07:47.099Z,8.26
2019-05-17T04:10:34.137Z,8.26
2019-05-17T04:13:23.469Z,8.30
2019-05-17T04:16:13.494Z,8.35
2019-05-17T04:18:56.234Z,8.41
2019-05-17T04:21:57.950Z,8.50
2019-05-17T04:28:06.064Z,8.66
2019-05-17T04:30:54.110Z,8.74
2019-05-17T04:33:43.103Z,8.79
2019-05-17T04:36:32.181Z,9.64
2019-05-17T04:39:32.659Z,9.20
2019-05-17T04:45:25.029Z,9.18
2019-05-17T04:48:13.091Z,9.22
2019-05-17T04:51:02.232Z,9.28
2019-05-17T04:53:45.985Z,9.33
2019-05-17T04:56:34.104Z,9.37
2019-05-17T04:59:24.250Z,10.24
2019-05-17T05:02:09.024Z,9.74
2019-05-17T05:05:03.747Z,9.71
2019-05-17T05:07:53.196Z,9.74
2019-05-17T05:10:38.600Z,9.80
2019-05-17T05:13:25.465Z,9.87
2019-05-17T05:16:13.655Z,9.93
2019-05-17T05:19:02.945Z,10.00
2019-05-17T05:21:47.800Z,10.90
2019-05-17T05:27:42.961Z,10.42
2019-05-17T05:30:32.008Z,10.48
2019-05-17T05:33:18.058Z,10.54
2019-05-17T05:36:05.458Z,10.58
2019-05-17T05:38:53.887Z,11.50
2019-05-17T05:41:44.918Z,11.00
2019-05-17T05:44:33.152Z,10.96
2019-05-17T05:47:22.222Z,11.01
2019-05-17T05:50:07.480Z,11.03
2019-05-17T05:52:55.527Z,11.06
2019-05-17T05:55:43.259Z,11.09
2019-05-17T05:58:32.023Z,11.14
2019-05-17T06:01:17.706Z,11.21
2019-05-17T06:04:05.192Z,11.29
2019-05-17T06:06:52.355Z,12.27
2019-05-17T06:09:42.381Z,11.78
2019-05-17T06:12:32.089Z,11.77
2019-05-17T06:15:21.861Z,11.77
2019-05-17T06:18:07.171Z,11.85
2019-05-17T06:20:55.404Z,11.91
2019-05-17T06:23:45.695Z,11.99
2019-05-17T06:26:32.924Z,12.04
2019-05-17T06:29:22.169Z,12.10
2019-05-17T06:32:08.387Z,12.18
2019-05-17T06:34:55.199Z,12.28
2019-05-17T06:37:43.452Z,12.40
2019-05-17T06:40:32.334Z,12.54
2019-05-17T06:43:17.555Z,12.62
2019-05-17T06:46:04.543Z,12.75
2019-05-17T06:48:53.007Z,13.90
2019-05-17T06:51:39.597Z,14.26
2019-05-17T06:54:27.268Z,13.48
2019-05-17T06:57:14.307Z,13.38
2019-05-17T07:00:06.112Z,13.41
2019-05-17T07:02:49.909Z,13.50
2019-05-17T07:05:44.007Z,13.62
2019-05-17T07:08:30.686Z,13.67
2019-05-17T07:11:17.519Z,13.72
2019-05-17T07:14:04.891Z,14.94
2019-05-17T07:16:52.797Z,14.29
2019-05-17T07:19:40.216Z,14.24
2019-05-17T07:22:29.671Z,15.39
2019-05-17T07:25:30.356Z,14.62
2019-05-17T07:28:19.795Z,14.63
2019-05-17T07:31:04.663Z,14.68
2019-05-17T07:33:51.557Z,14.73
2019-05-17T07:36:40.509Z,14.89
2019-05-17T07:39:29.577Z,15.03
2019-05-17T07:42:16.591Z,15.16
2019-05-17T07:45:09.814Z,15.31
2019-05-17T07:47:55.603Z,15.46
2019-05-17T07:50:42.649Z,15.60
2019-05-17T07:53:30.655Z,15.69
2019-05-17T07:56:19.785Z,15.73
2019-05-17T07:59:05.145Z,15.86
2019-05-17T08:01:59.824Z,15.95
2019-05-17T08:04:47.162Z,16.11
2019-05-17T08:07:34.273Z,16.25
2019-05-17T08:10:21.179Z,16.39
2019-05-17T08:13:25.204Z,17.83
2019-05-17T08:15:55.627Z,16.97
2019-05-17T08:18:43.669Z,16.89
2019-05-17T08:21:39.879Z,16.85
2019-05-17T08:24:30.424Z,17.07
2019-05-17T08:27:20.157Z,17.45
2019-05-17T08:30:05.399Z,17.73
2019-05-17T08:32:52.042Z,18.17
2019-05-17T08:35:40.030Z,18.35
2019-05-17T08:38:26.283Z,18.49
2019-05-17T08:41:13.399Z,18.63
2019-05-17T08:44:01.545Z,18.87
2019-05-17T08:46:50.113Z,18.99
2019-05-17T08:49:36.322Z,20.73
2019-05-17T08:52:22.996Z,19.87
2019-05-17T08:55:10.164Z,19.68
2019-05-17T08:57:56.702Z,19.49
2019-05-17T09:00:43.636Z,19.44
2019-05-17T09:03:31.256Z,19.32
2019-05-17T09:06:19.853Z,19.53
2019-05-17T09:09:05.320Z,19.64
2019-05-17T09:11:52.693Z,19.61
2019-05-17T09:14:40.268Z,19.43
2019-05-17T09:17:29.948Z,19.58
2019-05-17T09:20:16.006Z,19.86
2019-05-17T09:23:05.080Z,20.21
2019-05-17T09:29:01.268Z,20.34
2019-05-17T09:31:46.504Z,20.47
2019-05-17T09:34:33.911Z,20.68
2019-05-17T09:40:29.281Z,21.00
2019-05-17T09:43:15.109Z,21.39
2019-05-17T09:46:01.970Z,21.92
2019-05-17T09:48:50.451Z,22.22
2019-05-17T09:51:39.484Z,22.33
2019-05-17T09:54:41.178Z,22.42
2019-05-17T09:57:11.544Z,22.49
2019-05-17T10:00:00.115Z,22.57
2019-05-17T10:02:46.380Z,22.79
2019-05-17T10:05:33.522Z,23.10
2019-05-17T10:08:20.502Z,23.20
2019-05-17T10:11:12.154Z,23.21
2019-05-17T10:14:01.121Z,23.43
2019-05-17T10:16:46.766Z,23.53
2019-05-17T10:19:34.725Z,23.44
2019-05-17T10:22:23.037Z,23.47
2019-05-17T10:25:10.200Z,23.04
2019-05-17T10:27:57.517Z,22.87
2019-05-17T10:30:44.748Z,22.80
2019-05-17T10:33:31.813Z,22.98
2019-05-17T10:36:20.176Z,24.80
2019-05-17T10:39:06.299Z,23.65
2019-05-17T10:41:53.494Z,23.45
2019-05-17T10:44:47.023Z,23.34
2019-05-17T10:47:30.093Z,24.96
2019-05-17T10:50:14.867Z,23.84
2019-05-17T10:53:02.681Z,23.81
2019-05-17T10:55:49.979Z,23.96
2019-05-17T10:58:36.703Z,23.95
2019-05-17T11:01:24.230Z,24.16
2019-05-17T11:04:11.275Z,25.88
2019-05-17T11:06:59.630Z,24.68
2019-05-17T11:09:45.140Z,24.55
2019-05-17T11:12:32.399Z,24.54
2019-05-17T11:15:19.206Z,26.07
2019-05-17T11:18:06.942Z,24.72
2019-05-17T11:20:53.661Z,24.50
2019-05-17T11:23:41.078Z,24.31
2019-05-17T11:26:28.691Z,24.11
2019-05-17T11:29:15.666Z,24.08
2019-05-17T11:32:02.520Z,24.06
2019-05-17T11:35:04.254Z,24.06
2019-05-17T11:40:57.221Z,24.02
2019-05-17T11:43:44.275Z,23.93
2019-05-17T11:46:36.216Z,23.87
2019-05-17T11:49:19.219Z,25.71
2019-05-17T11:52:06.273Z,24.35
2019-05-17T11:54:55.075Z,25.71
2019-05-17T11:57:42.331Z,25.84
2019-05-17T12:00:29.747Z,24.42
2019-05-17T12:03:18.885Z,23.94
2019-05-17T12:06:06.261Z,23.32
2019-05-17T12:08:53.141Z,22.91
2019-05-17T12:11:41.687Z,22.72
2019-05-17T12:14:29.070Z,22.54
2019-05-17T12:17:15.819Z,22.57
2019-05-17T12:20:08.649Z,22.69
2019-05-17T12:22:55.534Z,22.79
2019-05-17T12:25:42.961Z,22.97
2019-05-17T12:28:30.200Z,24.71
2019-05-17T12:31:17.135Z,23.95
2019-05-17T12:34:04.245Z,23.71
2019-05-17T12:36:52.074Z,23.65
2019-05-17T12:39:39.039Z,23.59
2019-05-17T12:42:26.284Z,23.56
2019-05-17T12:45:13.422Z,23.54
2019-05-17T12:51:07.693Z,23.83
2019-05-17T12:53:56.562Z,24.05
2019-05-17T12:56:44.326Z,24.25
2019-05-17T12:59:34.700Z,26.20
2019-05-17T13:02:23.028Z,25.30
2019-05-17T13:05:10.184Z,24.95
2019-05-17T13:07:57.410Z,24.42
2019-05-17T13:10:47.255Z,24.37
2019-05-17T13:13:35.028Z,24.38
2019-05-17T13:16:21.822Z,24.35
2019-05-17T13:19:09.043Z,24.27
2019-05-17T13:21:57.141Z,23.86
2019-05-17T13:24:44.134Z,23.46
2019-05-17T13:27:31.997Z,24.87
2019-05-17T13:30:18.836Z,23.66
2019-05-17T13:33:06.244Z,23.64
2019-05-17T13:35:53.239Z,23.71
2019-05-17T13:38:40.815Z,23.37
2019-05-17T13:41:28.748Z,23.01
2019-05-17T13:44:16.671Z,22.52
2019-05-17T13:47:03.811Z,22.10
2019-05-17T13:49:54.695Z,21.88
2019-05-17T13:52:42.226Z,21.75
2019-05-17T13:55:29.338Z,21.77
2019-05-17T13:58:17.683Z,21.82
2019-05-17T14:01:05.307Z,22.00
2019-05-17T14:03:53.536Z,22.26
2019-05-17T14:06:40.564Z,23.83
2019-05-17T14:09:28.289Z,22.77
2019-05-17T14:12:15.417Z,22.60
2019-05-17T14:15:02.749Z,22.41
2019-05-17T14:17:50.567Z,22.30
2019-05-17T14:20:37.254Z,22.24
2019-05-17T14:23:24.630Z,23.70
2019-05-17T14:26:11.510Z,22.78
2019-05-17T14:28:58.083Z,22.76
2019-05-17T14:31:45.343Z,23.00
2019-05-17T14:34:32.276Z,23.04
2019-05-17T14:37:19.599Z,23.22
2019-05-17T14:40:06.483Z,23.33
2019-05-17T14:42:54.430Z,23.42
2019-05-17T14:45:42.970Z,24.93
2019-05-17T14:48:29.774Z,24.00
2019-05-17T14:51:17.713Z,23.92
2019-05-17T14:54:04.656Z,23.65
2019-05-17T14:56:52.765Z,25.02
2019-05-17T14:59:40.496Z,23.98
2019-05-17T15:02:27.717Z,23.79
2019-05-17T15:05:15.115Z,23.64
2019-05-17T15:08:02.266Z,23.63
2019-05-17T15:10:49.293Z,23.80
2019-05-17T15:13:36.210Z,24.73
2019-05-17T15:22:35.597Z,27.75
2019-05-17T15:25:22.697Z,28.47
2019-05-17T15:28:09.445Z,29.03
2019-05-17T15:30:56.334Z,30.69
2019-05-17T15:33:43.369Z,29.18
2019-05-17T15:36:31.091Z,28.81
2019-05-17T15:39:18.501Z,28.07
2019-05-17T15:42:05.678Z,27.89
2019-05-17T15:44:52.737Z,27.87
2019-05-17T15:47:40.571Z,27.24
2019-05-17T15:50:28.020Z,27.08
2019-05-17T15:53:15.321Z,27.69
2019-05-17T15:56:02.007Z,28.28
2019-05-17T15:58:49.296Z,27.88
2019-05-17T16:01:36.357Z,27.03
2019-05-17T16:04:23.285Z,26.34
2019-05-17T16:07:10.586Z,25.72
2019-05-17T16:09:57.971Z,25.44
2019-05-17T16:13:00.948Z,26.56
2019-05-17T16:15:32.334Z,25.16
2019-05-17T16:18:19.635Z,24.72
2019-05-17T16:21:08.002Z,25.18
2019-05-17T16:23:55.042Z,26.18
2019-05-17T16:26:42.082Z,27.17
2019-05-17T16:29:29.169Z,27.34
2019-05-17T16:32:18.313Z,27.49
2019-05-17T16:35:05.146Z,27.07
2019-05-17T16:37:52.192Z,26.26
2019-05-17T16:40:39.394Z,25.69
2019-05-17T16:43:26.985Z,25.61
2019-05-17T16:46:14.153Z,26.20
2019-05-17T16:49:01.043Z,26.81
2019-05-17T16:51:48.149Z,27.18
2019-05-17T16:54:35.349Z,27.60
2019-05-17T16:57:22.806Z,27.80
2019-05-17T17:00:25.653Z,27.49
2019-05-17T17:03:13.382Z,27.06
2019-05-17T17:06:00.575Z,26.87
2019-05-17T17:08:47.739Z,27.32
2019-05-17T17:11:35.851Z,27.78
2019-05-17T17:14:22.661Z,29.94
2019-05-17T17:17:12.394Z,28.82
2019-05-17T17:19:57.614Z,28.78
2019-05-17T17:22:45.754Z,28.73
2019-05-17T17:25:33.120Z,28.66
2019-05-17T17:28:22.597Z,28.67
2019-05-17T17:31:07.443Z,28.77
2019-05-17T17:33:54.814Z,28.73
2019-05-17T17:36:41.579Z,28.69
2019-05-17T17:39:30.439Z,28.60
2019-05-17T17:42:18.235Z,28.45
2019-05-17T17:48:11.111Z,27.89
2019-05-17T17:50:58.231Z,27.57
2019-05-17T17:56:51.715Z,27.13
2019-05-17T17:59:39.725Z,26.87
2019-05-17T18:02:26.841Z,26.38
2019-05-17T18:05:14.402Z,25.93
2019-05-17T18:08:01.488Z,25.84
2019-05-17T18:10:49.321Z,25.52
2019-05-17T18:13:36.226Z,25.16
2019-05-17T18:16:37.676Z,24.42
2019-05-17T18:21:50.728Z,22.90
2019-05-17T18:24:44.929Z,23.88
2019-05-17T18:27:32.838Z,22.21
2019-05-17T18:30:19.524Z,21.50
2019-05-17T18:33:06.403Z,20.93
2019-05-17T18:35:53.789Z,20.45
2019-05-17T18:38:40.818Z,19.99
2019-05-17T18:41:42.364Z,19.58
2019-05-17T18:44:29.692Z,19.17
2019-05-17T18:47:16.426Z,18.82
2019-05-17T18:50:03.315Z,18.50
2019-05-17T18:52:50.331Z,18.24
2019-05-17T18:55:37.499Z,17.96
2019-05-17T18:58:25.364Z,17.65
2019-05-17T19:01:12.994Z,17.38
2019-05-17T19:03:59.805Z,17.14
2019-05-17T19:06:46.937Z,16.90
2019-05-17T19:09:34.138Z,16.69
2019-05-17T19:12:21.407Z,16.45
2019-05-17T19:15:08.817Z,16.22
2019-05-17T19:17:55.740Z,16.05
2019-05-17T19:20:42.959Z,15.90
2019-05-17T19:23:36.838Z,15.74
2019-05-17T19:26:31.480Z,15.55
2019-05-17T19:29:18.951Z,15.39
2019-05-17T19:32:13.800Z,16.17
2019-05-17T19:35:01.840Z,15.37
2019-05-17T19:37:48.776Z,15.14
2019-05-17T19:40:35.609Z,14.98
2019-05-17T19:43:22.592Z,14.84
2019-05-17T19:46:16.750Z,14.71
2019-05-17T19:49:04.013Z,14.54
2019-05-17T19:51:51.238Z,14.42
2019-05-17T19:54:38.328Z,14.31
2019-05-17T19:57:26.451Z,14.20
2019-05-17T20:00:14.597Z,14.92
2019-05-17T20:03:02.141Z,14.27
2019-05-17T20:05:49.565Z,14.09
2019-05-17T20:08:36.639Z,13.94
2019-05-17T20:11:33.912Z,13.82
2019-05-17T20:14:10.276Z,13.69
2019-05-17T20:16:56.998Z,13.58
2019-05-17T20:19:51.433Z,13.49
2019-05-17T20:22:38.450Z,13.44
2019-05-17T20:25:26.106Z,13.33
2019-05-17T20:28:14.085Z,14.04
2019-05-17T20:31:08.318Z,13.45
2019-05-17T20:33:56.183Z,13.30
2019-05-17T20:36:51.123Z,13.23
2019-05-17T20:39:38.634Z,13.17
2019-05-17T20:42:40.832Z,13.14
2019-05-17T20:45:42.763Z,13.07
2019-05-17T20:48:30.572Z,13.00
2019-05-17T20:51:17.663Z,12.90
2019-05-17T20:54:04.451Z,12.80
2019-05-17T20:56:54.713Z,12.69
2019-05-17T20:59:42.122Z,12.54
2019-05-17T21:02:29.385Z,12.42
2019-05-17T21:05:30.703Z,12.35
2019-05-17T21:08:18.095Z,12.27
2019-05-17T21:11:05.315Z,12.22
2019-05-17T21:17:13.662Z,12.13
2019-05-17T21:20:00.863Z,12.07
2019-05-17T21:25:53.514Z,12.04
2019-05-17T21:37:59.259Z,11.61
2019-05-17T21:40:46.020Z,11.50
2019-05-17T21:43:34.315Z,11.45
2019-05-17T21:46:21.300Z,12.22
2019-05-17T21:49:08.765Z,11.73
2019-05-17T21:51:56.194Z,11.62
2019-05-17T21:54:44.209Z,12.28
2019-05-17T21:57:45.599Z,11.67
2019-05-17T22:03:42.814Z,11.23
2019-05-17T22:06:44.086Z,11.12
2019-05-17T22:09:31.501Z,11.02
2019-05-17T22:12:19.332Z,10.92
2019-05-17T22:15:06.127Z,10.87
2019-05-17T22:17:54.368Z,10.83
2019-05-17T22:20:42.348Z,10.76
2019-05-17T22:23:30.543Z,10.67
2019-05-17T22:26:18.094Z,10.59
2019-05-17T22:32:11.294Z,10.43
2019-05-17T22:34:58.399Z,10.41
2019-05-17T22:37:45.498Z,10.39
2019-05-17T22:40:32.919Z,10.35
2019-05-17T22:43:20.248Z,11.04
2019-05-17T22:46:14.539Z,10.49
2019-05-17T22:49:02.673Z,11.10
2019-05-17T22:51:49.555Z,11.27
2019-05-17T22:54:36.805Z,11.36
2019-05-17T23:00:29.758Z,10.53
2019-05-17T23:03:17.899Z,10.44
2019-05-17T23:06:06.198Z,10.37
2019-05-17T23:08:53.136Z,10.33
2019-05-17T23:11:41.276Z,10.29
2019-05-17T23:14:28.291Z,10.95
2019-05-17T23:17:15.530Z,10.46
2019-05-17T23:20:02.972Z,10.34
2019-05-17T23:22:51.260Z,10.27
2019-05-17T23:25:38.620Z,10.21
2019-05-17T23:28:25.799Z,10.85
2019-05-17T23:31:13.788Z,10.34
2019-05-17T23:34:00.602Z,10.21
2019-05-17T23:39:55.068Z,10.05
2019-05-17T23:42:41.882Z,9.98
2019-05-17T23:48:34.656Z,10.05
2019-05-17T23:54:27.923Z,9.81
2019-05-17T23:57:15.243Z,9.75
